Time;durP1;ratioP1;P1;durP2;ratioP2;P2;SDS_P1;SDS_P2;PMS_P1;PMS_P2;Temp;Humidity;BMP_temperature;BMP_pressure;BME280_temperature;BME280_humidity;BME280_pressure;Samples;Min_cycle;Max_cycle;Signal;HPM_P1;HPM_P2
2024/03/20 00:01:09;;;;;;;;;;;;;;;;;;5014514;28;19968;-79
2024/03/20 00:03:35;;;;;;;;;;;;;;;;;;5013171;28;20492;-79
2024/03/20 00:06:00;;;;;;;;;;;;;;;;;;4997261;28;19929;-79
2024/03/20 00:08:26;;;;;;;;;;;;;;;;;;4983147;28;19964;-76
2024/03/20 00:10:51;;;;;;;;;;;;;;;;;;5003824;28;19960;-77
2024/03/20 00:13:17;;;;;;;;;;;;;;;;;;4995870;28;19925;-78
2024/03/20 00:15:42;;;;;;;;;;;;;;;;;;4980819;28;19929;-78
2024/03/20 00:18:08;;;;;;;;;;;;;;;;;;4998042;28;19925;-76
2024/03/20 00:20:33;;;;;;;;;;;;;;;;;;4980083;28;20373;-77
2024/03/20 00:22:59;;;;;;;;;;;;;;;;;;5002572;28;19952;-78
2024/03/20 00:25:25;;;;;;;;;;;;;;;;;;5002558;28;19937;-77
2024/03/20 00:27:51;;;;;;;;;;;;;;;;;;5015895;28;19928;-79
2024/03/20 00:30:16;;;;;;;;;;;;;;;;;;5018753;28;20278;-78
2024/03/20 00:32:43;;;;;;;;;;;;;;;;;;5017650;28;19952;-79
2024/03/20 00:35:11;;;;;;;;;;;;;;;;;;5017953;28;20643;-77
2024/03/20 00:37:37;;;;;;;;;;;;;;;;;;5012510;28;20431;-76
2024/03/20 00:40:04;;;;;;;;;;;;;;;;;;5017526;28;19925;-78
2024/03/20 00:42:29;;;;;;;;;;;;;;;;;;5003939;28;20388;-77
2024/03/20 00:44:55;;;;;;;;;;;;;;;;;;5021948;28;19929;-78
2024/03/20 00:47:21;;;;;;;;;;;;;;;;;;5002268;28;19925;-79
2024/03/20 00:49:46;;;;;;;;;;;;;;;;;;5001977;28;20112;-77
2024/03/20 00:52:11;;;;;;;;;;;;;;;;;;5007455;28;19972;-77
2024/03/20 00:54:39;;;;;;;;;;;;;;;;;;5002627;28;19925;-79
2024/03/20 00:57:05;;;;;;;;;;;;;;;;;;5025875;28;20274;-78
2024/03/20 00:59:30;;;;;;;;;;;;;;;;;;5020268;28;19987;-78
2024/03/20 01:01:55;;;;;;;;;;;;;;;;;;5021336;28;19925;-78
2024/03/20 01:04:21;;;;;;;;;;;;;;;;;;5017412;28;19929;-77
2024/03/20 01:06:46;;;;;;;;;;;;;;;;;;5000590;28;19944;-78
2024/03/20 01:09:12;;;;;;;;;;;;;;;;;;5005812;28;19933;-79
2024/03/20 01:11:37;;;;;;;;;;;;;;;;;;5001018;28;19925;-79
2024/03/20 01:14:03;;;;;;;;;;;;;;;;;;5003629;28;19929;-79
2024/03/20 01:16:28;;;;;;;;;;;;;;;;;;5004843;28;19932;-79
2024/03/20 01:18:54;;;;;;;;;;;;;;;;;;4999388;28;19937;-77
2024/03/20 01:21:19;;;;;;;;;;;;;;;;;;5016653;28;19995;-78
2024/03/20 01:23:45;;;;;;;;;;;;;;;;;;5005968;28;19929;-78
2024/03/20 01:26:10;;;;;;;;;;;;;;;;;;5004894;28;19937;-78
2024/03/20 01:28:36;;;;;;;;;;;;;;;;;;5021836;28;20020;-78
2024/03/20 01:31:01;;;;;;;;;;;;;;;;;;4999209;28;20368;-77
2024/03/20 01:33:26;;;;;;;;;;;;;;;;;;5001812;28;19925;-78
2024/03/20 01:35:52;;;;;;;;;;;;;;;;;;4984306;28;19925;-79
2024/03/20 01:38:18;;;;;;;;;;;;;;;;;;4986051;28;19929;-78
2024/03/20 01:40:43;;;;;;;;;;;;;;;;;;5000509;28;19936;-79
2024/03/20 01:43:08;;;;;;;;;;;;;;;;;;5000606;28;19932;-77
2024/03/20 01:45:34;;;;;;;;;;;;;;;;;;4999988;28;20349;-77
2024/03/20 01:47:59;;;;;;;;;;;;;;;;;;5005848;28;20028;-78
2024/03/20 01:50:25;;;;;;;;;;;;;;;;;;5003122;28;19925;-79
2024/03/20 01:52:50;;;;;;;;;;;;;;;;;;5000075;28;19932;-78
2024/03/20 01:55:16;;;;;;;;;;;;;;;;;;5000322;28;19957;-79
2024/03/20 01:57:42;;;;;;;;;;;;;;;;;;4983348;28;20361;-78
2024/03/20 02:00:08;;;;;;;;;;;;;;;;;;5001172;28;19936;-76
2024/03/20 02:02:37;;;;;;;;;;;;;;;;;;5000087;28;19925;-76
2024/03/20 02:05:02;;;;;;;;;;;;;;;;;;5016882;28;19938;-79
2024/03/20 02:07:28;;;;;;;;;;;;;;;;;;5016180;28;19925;-78
2024/03/20 02:09:53;;;;;;;;;;;;;;;;;;5019874;28;19933;-78
2024/03/20 02:12:19;;;;;;;;;;;;;;;;;;5014742;28;19929;-78
2024/03/20 02:14:44;;;;;;;;;;;;;;;;;;5002929;28;19929;-78
2024/03/20 02:17:10;;;;;;;;;;;;;;;;;;5014784;28;19932;-78
2024/03/20 02:19:35;;;;;;;;;;;;;;;;;;4998913;28;19932;-79
2024/03/20 02:22:01;;;;;;;;;;;;;;;;;;5009087;28;19936;-78
2024/03/20 02:24:27;;;;;;;;;;;;;;;;;;4999442;28;19936;-78
2024/03/20 02:26:53;;;;;;;;;;;;;;;;;;5015498;28;20594;-78
2024/03/20 02:29:18;;;;;;;;;;;;;;;;;;4998748;28;20032;-78
2024/03/20 02:31:44;;;;;;;;;;;;;;;;;;5011931;28;19937;-78
2024/03/20 02:34:10;;;;;;;;;;;;;;;;;;5005674;28;19952;-78
2024/03/20 02:36:35;;;;;;;;;;;;;;;;;;4986908;28;19929;-78
2024/03/20 02:39:00;;;;;;;;;;;;;;;;;;5017444;28;19929;-78
2024/03/20 02:41:27;;;;;;;;;;;;;;;;;;4999585;28;19979;-77
2024/03/20 02:43:53;;;;;;;;;;;;;;;;;;5006139;28;19925;-78
2024/03/20 02:46:19;;;;;;;;;;;;;;;;;;5015441;28;19948;-77
2024/03/20 02:48:44;;;;;;;;;;;;;;;;;;4992648;28;19925;-79
2024/03/20 02:51:10;;;;;;;;;;;;;;;;;;5002391;28;19952;-78
2024/03/20 02:53:35;;;;;;;;;;;;;;;;;;4998418;28;19929;-77
2024/03/20 02:56:01;;;;;;;;;;;;;;;;;;4997961;28;19948;-78
2024/03/20 02:58:26;;;;;;;;;;;;;;;;;;5015603;28;19929;-78
2024/03/20 03:00:52;;;;;;;;;;;;;;;;;;5006526;28;19932;-77
2024/03/20 03:03:17;;;;;;;;;;;;;;;;;;5032144;28;19936;-78
2024/03/20 03:05:42;;;;;;;;;;;;;;;;;;4999807;28;20389;-76
2024/03/20 03:08:08;;;;;;;;;;;;;;;;;;5019730;28;19932;-78
2024/03/20 03:10:33;;;;;;;;;;;;;;;;;;4998526;28;19936;-77
2024/03/20 03:12:59;;;;;;;;;;;;;;;;;;5003430;28;19959;-77
2024/03/20 03:15:24;;;;;;;;;;;;;;;;;;5004162;28;19975;-77
2024/03/20 03:17:50;;;;;;;;;;;;;;;;;;5003993;28;19979;-77
2024/03/20 03:20:16;;;;;;;;;;;;;;;;;;5005463;28;20382;-78
2024/03/20 03:22:41;;;;;;;;;;;;;;;;;;4998982;28;19925;-78
2024/03/20 03:25:07;;;;;;;;;;;;;;;;;;5020575;28;19979;-78
2024/03/20 03:27:33;;;;;;;;;;;;;;;;;;5004949;28;19925;-78
2024/03/20 03:29:58;;;;;;;;;;;;;;;;;;5003488;28;19935;-78
2024/03/20 03:32:23;;;;;;;;;;;;;;;;;;4998372;28;20427;-79
2024/03/20 03:34:49;;;;;;;;;;;;;;;;;;5000033;28;20028;-77
2024/03/20 03:37:14;;;;;;;;;;;;;;;;;;5005391;28;19983;-79
2024/03/20 03:39:40;;;;;;;;;;;;;;;;;;4998394;28;19960;-78
2024/03/20 03:42:05;;;;;;;;;;;;;;;;;;4996837;28;19932;-78
2024/03/20 03:44:31;;;;;;;;;;;;;;;;;;5000366;28;19929;-78
2024/03/20 03:46:56;;;;;;;;;;;;;;;;;;4999831;28;19983;-76
2024/03/20 03:49:22;;;;;;;;;;;;;;;;;;5003775;28;19929;-76
2024/03/20 03:51:47;;;;;;;;;;;;;;;;;;4996632;28;20024;-78
2024/03/20 03:54:13;;;;;;;;;;;;;;;;;;5022901;28;19929;-79
2024/03/20 03:56:38;;;;;;;;;;;;;;;;;;5023928;28;19925;-76
2024/03/20 03:59:04;;;;;;;;;;;;;;;;;;4998922;28;20385;-78
2024/03/20 04:01:29;;;;;;;;;;;;;;;;;;4998078;28;20031;-78
2024/03/20 04:03:54;;;;;;;;;;;;;;;;;;5003178;28;19933;-78
2024/03/20 04:06:20;;;;;;;;;;;;;;;;;;5003788;28;20028;-78
2024/03/20 04:08:45;;;;;;;;;;;;;;;;;;5001412;28;20027;-79
2024/03/20 04:11:11;;;;;;;;;;;;;;;;;;5007073;28;19925;-78
2024/03/20 04:13:36;;;;;;;;;;;;;;;;;;5013781;28;19925;-80
2024/03/20 04:16:02;;;;;;;;;;;;;;;;;;5014747;28;19925;-80
2024/03/20 04:18:27;;;;;;;;;;;;;;;;;;4998534;28;19951;-79
2024/03/20 04:20:53;;;;;;;;;;;;;;;;;;4981241;28;19929;-77
2024/03/20 04:23:18;;;;;;;;;;;;;;;;;;4999630;28;20369;-76
2024/03/20 04:25:44;;;;;;;;;;;;;;;;;;4997262;28;19940;-79
2024/03/20 04:28:09;;;;;;;;;;;;;;;;;;5020123;28;19936;-78
2024/03/20 04:30:35;;;;;;;;;;;;;;;;;;4997171;28;19975;-79
2024/03/20 04:33:00;;;;;;;;;;;;;;;;;;5013862;28;19982;-78
2024/03/20 04:35:26;;;;;;;;;;;;;;;;;;5018786;28;19964;-78
2024/03/20 04:37:51;;;;;;;;;;;;;;;;;;4998184;28;19925;-79
2024/03/20 04:40:17;;;;;;;;;;;;;;;;;;5000316;28;20025;-77
2024/03/20 04:42:42;;;;;;;;;;;;;;;;;;4996453;28;19929;-78
2024/03/20 04:45:08;;;;;;;;;;;;;;;;;;4994259;28;19926;-77
2024/03/20 04:47:33;;;;;;;;;;;;;;;;;;5002429;28;19929;-77
2024/03/20 04:49:58;;;;;;;;;;;;;;;;;;5000820;28;19929;-78
2024/03/20 04:52:24;;;;;;;;;;;;;;;;;;5005611;28;19933;-77
2024/03/20 04:54:49;;;;;;;;;;;;;;;;;;5000711;28;20011;-76
2024/03/20 04:57:15;;;;;;;;;;;;;;;;;;5016719;28;19929;-76
2024/03/20 04:59:40;;;;;;;;;;;;;;;;;;5021223;28;20016;-79
2024/03/20 05:02:05;;;;;;;;;;;;;;;;;;4997163;28;19979;-78
2024/03/20 05:04:31;;;;;;;;;;;;;;;;;;4997596;28;19983;-78
2024/03/20 05:06:56;;;;;;;;;;;;;;;;;;5002649;28;19928;-79
2024/03/20 05:09:22;;;;;;;;;;;;;;;;;;5013026;28;20036;-76
2024/03/20 05:11:47;;;;;;;;;;;;;;;;;;5002994;28;20293;-78
2024/03/20 05:14:13;;;;;;;;;;;;;;;;;;4999323;28;20133;-77
2024/03/20 05:16:38;;;;;;;;;;;;;;;;;;5019730;28;19925;-79
2024/03/20 05:19:04;;;;;;;;;;;;;;;;;;5016640;28;19933;-79
2024/03/20 05:21:29;;;;;;;;;;;;;;;;;;5023793;28;20008;-78
2024/03/20 05:23:55;;;;;;;;;;;;;;;;;;5024347;28;20412;-79
2024/03/20 05:26:20;;;;;;;;;;;;;;;;;;5006702;28;19993;-78
2024/03/20 05:28:46;;;;;;;;;;;;;;;;;;5002186;28;19956;-77
2024/03/20 05:31:11;;;;;;;;;;;;;;;;;;5003102;28;19965;-78
2024/03/20 05:33:38;;;;;;;;;;;;;;;;;;5017007;28;19925;-78
2024/03/20 05:36:03;;;;;;;;;;;;;;;;;;5003881;28;19951;-77
2024/03/20 05:38:29;;;;;;;;;;;;;;;;;;5026891;28;19913;-77
2024/03/20 05:40:55;;;;;;;;;;;;;;;;;;5040581;28;19929;-76
2024/03/20 05:43:20;;;;;;;;;;;;;;;;;;5045498;28;19940;-76
2024/03/20 05:45:46;;;;;;;;;;;;;;;;;;5038598;28;19925;-75
2024/03/20 05:48:11;;;;;;;;;;;;;;;;;;5021430;28;19944;-77
2024/03/20 05:50:36;;;;;;;;;;;;;;;;;;5005360;28;19913;-76
2024/03/20 05:53:02;;;;;;;;;;;;;;;;;;5055209;28;19913;-75
2024/03/20 05:55:27;;;;;;;;;;;;;;;;;;5003795;28;19910;-77
2024/03/20 05:57:53;;;;;;;;;;;;;;;;;;5038611;28;19983;-76
2024/03/20 06:00:18;;;;;;;;;;;;;;;;;;5039553;28;19940;-76
2024/03/20 06:02:44;;;;;;;;;;;;;;;;;;5008496;28;19940;-76
2024/03/20 06:05:09;;;;;;;;;;;;;;;;;;5039221;28;19936;-75
2024/03/20 06:07:35;;;;;;;;;;;;;;;;;;5053516;28;19925;-75
2024/03/20 06:10:00;;;;;;;;;;;;;;;;;;5037638;28;19931;-76
2024/03/20 06:12:25;;;;;;;;;;;;;;;;;;5026787;28;19951;-76
2024/03/20 06:14:51;;;;;;;;;;;;;;;;;;5040237;28;19925;-75
2024/03/20 06:17:16;;;;;;;;;;;;;;;;;;5021051;28;19929;-75
2024/03/20 06:19:42;;;;;;;;;;;;;;;;;;5024862;28;19913;-76
2024/03/20 06:22:07;;;;;;;;;;;;;;;;;;5036452;28;20365;-75
2024/03/20 06:24:33;;;;;;;;;;;;;;;;;;5037284;28;19940;-75
2024/03/20 06:26:58;;;;;;;;;;;;;;;;;;5042207;28;19913;-77
2024/03/20 06:29:23;;;;;;;;;;;;;;;;;;5019270;28;19944;-76
2024/03/20 06:31:50;;;;;;;;;;;;;;;;;;5036076;28;19932;-77
2024/03/20 06:34:15;;;;;;;;;;;;;;;;;;5033676;28;19933;-75
2024/03/20 06:36:40;;;;;;;;;;;;;;;;;;5030486;28;19992;-76
2024/03/20 06:39:08;;;;;;;;;;;;;;;;;;5033807;28;19932;-72
2024/03/20 06:41:34;;;;;;;;;;;;;;;;;;5032015;28;19967;-75
2024/03/20 06:44:00;;;;;;;;;;;;;;;;;;5037255;28;19929;-74
2024/03/20 06:46:26;;;;;;;;;;;;;;;;;;5037673;28;19925;-76
2024/03/20 06:48:52;;;;;;;;;;;;;;;;;;5016575;28;19995;-75
2024/03/20 06:51:20;;;;;;;;;;;;;;;;;;5034996;28;19929;-75
2024/03/20 06:53:45;;;;;;;;;;;;;;;;;;5031252;28;19921;-76
2024/03/20 06:56:11;;;;;;;;;;;;;;;;;;5026492;28;19943;-76
2024/03/20 06:58:36;;;;;;;;;;;;;;;;;;5022110;28;19913;-74
2024/03/20 07:01:02;;;;;;;;;;;;;;;;;;5033156;28;19925;-76
2024/03/20 07:03:28;;;;;;;;;;;;;;;;;;5016021;28;19932;-75
2024/03/20 07:05:54;;;;;;;;;;;;;;;;;;5021179;28;19933;-75
2024/03/20 07:08:20;;;;;;;;;;;;;;;;;;5028860;28;19925;-74
2024/03/20 07:10:45;;;;;;;;;;;;;;;;;;5018201;28;19987;-73
2024/03/20 07:13:11;;;;;;;;;;;;;;;;;;5027530;28;19925;-74
2024/03/20 07:15:36;;;;;;;;;;;;;;;;;;5032286;28;19925;-75
2024/03/20 07:18:01;;;;;;;;;;;;;;;;;;5013708;28;19932;-76
2024/03/20 07:20:29;;;;;;;;;;;;;;;;;;5026930;28;20399;-76
2024/03/20 07:22:54;;;;;;;;;;;;;;;;;;5015803;28;19925;-75
2024/03/20 07:25:22;;;;;;;;;;;;;;;;;;5007325;28;19929;-75
2024/03/20 07:27:47;;;;;;;;;;;;;;;;;;5016404;28;19925;-74
2024/03/20 07:30:14;;;;;;;;;;;;;;;;;;5028915;28;19952;-76
2024/03/20 07:32:40;;;;;;;;;;;;;;;;;;5025954;28;19936;-75
2024/03/20 07:35:06;;;;;;;;;;;;;;;;;;5010556;28;19952;-73
2024/03/20 07:37:31;;;;;;;;;;;;;;;;;;5024144;28;20447;-77
2024/03/20 07:39:57;;;;;;;;;;;;;;;;;;5037470;28;19929;-75
2024/03/20 07:42:22;;;;;;;;;;;;;;;;;;5031837;28;19925;-73
2024/03/20 07:44:48;;;;;;;;;;;;;;;;;;5025998;28;19971;-76
2024/03/20 07:47:14;;;;;;;;;;;;;;;;;;5010317;28;19929;-75
2024/03/20 07:49:39;;;;;;;;;;;;;;;;;;5016736;28;19952;-75
2024/03/20 07:52:05;;;;;;;;;;;;;;;;;;5012060;28;19948;-75
2024/03/20 07:54:30;;;;;;;;;;;;;;;;;;5018528;28;20343;-76
2024/03/20 07:56:55;;;;;;;;;;;;;;;;;;5010436;28;19955;-76
2024/03/20 07:59:25;;;;;;;;;;;;;;;;;;5037292;28;19936;-76
2024/03/20 08:01:50;;;;;;;;;;;;;;;;;;5029156;28;19929;-76
2024/03/20 08:04:15;;;;;;;;;;;;;;;;;;5010628;28;19925;-76
2024/03/20 08:06:41;;;;;;;;;;;;;;;;;;4994594;28;19913;-76
2024/03/20 08:09:06;;;;;;;;;;;;;;;;;;5012637;28;19933;-76
2024/03/20 08:11:32;;;;;;;;;;;;;;;;;;5030081;28;19933;-76
2024/03/20 08:13:57;;;;;;;;;;;;;;;;;;5027120;28;19925;-75
2024/03/20 08:16:23;;;;;;;;;;;;;;;;;;5029290;28;19929;-74
2024/03/20 08:18:48;;;;;;;;;;;;;;;;;;5026823;28;19955;-75
2024/03/20 08:21:15;;;;;;;;;;;;;;;;;;5039800;28;19932;-76
2024/03/20 08:23:40;;;;;;;;;;;;;;;;;;5017553;28;19925;-76
2024/03/20 08:26:06;;;;;;;;;;;;;;;;;;5029966;28;19993;-76
2024/03/20 08:28:31;;;;;;;;;;;;;;;;;;5027567;28;19929;-76
2024/03/20 08:30:57;;;;;;;;;;;;;;;;;;5027821;28;19929;-74
2024/03/20 08:33:22;;;;;;;;;;;;;;;;;;5028821;28;19929;-77
2024/03/20 08:35:47;;;;;;;;;;;;;;;;;;5021362;28;19929;-72
2024/03/20 08:38:13;;;;;;;;;;;;;;;;;;5024078;28;19969;-76
2024/03/20 08:40:38;;;;;;;;;;;;;;;;;;5018653;28;19936;-76
2024/03/20 08:43:04;;;;;;;;;;;;;;;;;;5026126;28;20281;-75
2024/03/20 08:45:29;;;;;;;;;;;;;;;;;;5021851;28;19987;-75
2024/03/20 08:47:56;;;;;;;;;;;;;;;;;;5021762;28;20001;-75
2024/03/20 08:50:21;;;;;;;;;;;;;;;;;;5023404;28;19929;-74
2024/03/20 08:52:46;;;;;;;;;;;;;;;;;;5022210;28;19925;-75
2024/03/20 08:55:12;;;;;;;;;;;;;;;;;;5006223;28;19929;-75
2024/03/20 08:57:39;;;;;;;;;;;;;;;;;;5008578;28;19991;-75
2024/03/20 09:00:08;;;;;;;;;;;;;;;;;;5024580;28;19925;-75
2024/03/20 09:02:34;;;;;;;;;;;;;;;;;;5011547;28;19929;-75
2024/03/20 09:04:59;;;;;;;;;;;;;;;;;;5021454;28;19933;-75
2024/03/20 09:07:24;;;;;;;;;;;;;;;;;;5021860;28;20349;-75
2024/03/20 09:09:50;;;;;;;;;;;;;;;;;;5034103;28;19936;-75
2024/03/20 09:12:15;;;;;;;;;;;;;;;;;;5018971;28;19933;-76
2024/03/20 09:14:41;;;;;;;;;;;;;;;;;;5019288;28;20377;-76
2024/03/20 09:17:06;;;;;;;;;;;;;;;;;;5020341;28;20369;-74
2024/03/20 09:19:32;;;;;;;;;;;;;;;;;;5016913;28;19933;-75
2024/03/20 09:21:57;;;;;;;;;;;;;;;;;;5000650;28;19936;-76
2024/03/20 09:24:23;;;;;;;;;;;;;;;;;;5016251;28;20298;-76
2024/03/20 09:26:49;;;;;;;;;;;;;;;;;;5017718;28;19925;-76
2024/03/20 09:29:14;;;;;;;;;;;;;;;;;;5004580;28;19929;-76
2024/03/20 09:31:40;;;;;;;;;;;;;;;;;;5019635;28;19935;-75
2024/03/20 09:34:05;;;;;;;;;;;;;;;;;;5016602;28;19979;-75
2024/03/20 09:36:30;;;;;;;;;;;;;;;;;;5016506;28;20071;-75
2024/03/20 09:38:56;;;;;;;;;;;;;;;;;;5016668;28;20277;-76
2024/03/20 09:41:21;;;;;;;;;;;;;;;;;;5020025;28;19972;-73
2024/03/20 09:43:47;;;;;;;;;;;;;;;;;;5032466;28;19929;-76
2024/03/20 09:46:14;;;;;;;;;;;;;;;;;;5016735;28;19971;-74
2024/03/20 09:48:39;;;;;;;;;;;;;;;;;;5000010;28;19929;-73
2024/03/20 09:51:05;;;;;;;;;;;;;;;;;;5009183;28;20403;-75
2024/03/20 09:53:34;;;;;;;;;;;;;;;;;;5014291;28;19930;-76
2024/03/20 09:55:59;;;;;;;;;;;;;;;;;;5005959;28;20294;-73
2024/03/20 09:58:25;;;;;;;;;;;;;;;;;;5014700;28;19929;-75
2024/03/20 10:00:50;;;;;;;;;;;;;;;;;;4998609;28;19998;-76
2024/03/20 10:03:18;;;;;;;;;;;;;;;;;;5015515;28;20026;-77
2024/03/20 10:05:45;;;;;;;;;;;;;;;;;;5004012;28;19938;-76
2024/03/20 10:08:12;;;;;;;;;;;;;;;;;;5015672;28;19929;-76
2024/03/20 10:10:38;;;;;;;;;;;;;;;;;;5013788;28;19926;-75
2024/03/20 10:13:03;;;;;;;;;;;;;;;;;;4998322;28;20015;-75
2024/03/20 10:15:28;;;;;;;;;;;;;;;;;;5021560;28;19925;-76
2024/03/20 10:17:55;;;;;;;;;;;;;;;;;;4989053;28;19933;-75
2024/03/20 10:20:21;;;;;;;;;;;;;;;;;;5007912;28;19971;-76
2024/03/20 10:22:47;;;;;;;;;;;;;;;;;;5014451;28;20332;-76
2024/03/20 10:25:13;;;;;;;;;;;;;;;;;;4999497;28;19994;-76
2024/03/20 10:27:38;;;;;;;;;;;;;;;;;;5014107;28;19925;-75
2024/03/20 10:30:06;;;;;;;;;;;;;;;;;;5031910;28;19932;-76
2024/03/20 10:32:32;;;;;;;;;;;;;;;;;;5005482;28;19929;-75
2024/03/20 10:34:58;;;;;;;;;;;;;;;;;;5014678;28;19944;-74
2024/03/20 10:37:24;;;;;;;;;;;;;;;;;;5012124;28;19984;-76
2024/03/20 10:39:49;;;;;;;;;;;;;;;;;;5018826;28;19940;-75
2024/03/20 10:42:14;;;;;;;;;;;;;;;;;;5013907;28;19995;-75
2024/03/20 10:44:40;;;;;;;;;;;;;;;;;;4998272;28;19925;-76
2024/03/20 10:47:05;;;;;;;;;;;;;;;;;;5004447;28;19929;-76
2024/03/20 10:49:31;;;;;;;;;;;;;;;;;;5019666;28;19932;-75
2024/03/20 10:51:56;;;;;;;;;;;;;;;;;;5002047;28;19929;-76
2024/03/20 10:54:22;;;;;;;;;;;;;;;;;;5019790;28;20020;-76
2024/03/20 10:56:47;;;;;;;;;;;;;;;;;;5013235;28;19932;-75
2024/03/20 10:59:12;;;;;;;;;;;;;;;;;;5018405;28;19929;-75
2024/03/20 11:01:38;;;;;;;;;;;;;;;;;;5014071;28;19925;-76
2024/03/20 11:04:03;;;;;;;;;;;;;;;;;;5016329;28;19940;-75
2024/03/20 11:06:30;;;;;;;;;;;;;;;;;;5014692;28;19925;-76
2024/03/20 11:08:56;;;;;;;;;;;;;;;;;;5000865;28;19925;-77
2024/03/20 11:11:21;;;;;;;;;;;;;;;;;;5015327;28;19995;-75
2024/03/20 11:13:47;;;;;;;;;;;;;;;;;;5018712;28;19929;-75
2024/03/20 11:16:12;;;;;;;;;;;;;;;;;;4997446;28;19979;-75
2024/03/20 11:18:37;;;;;;;;;;;;;;;;;;5021221;28;19929;-76
2024/03/20 11:21:06;;;;;;;;;;;;;;;;;;5021394;28;20443;-74
2024/03/20 11:23:33;;;;;;;;;;;;;;;;;;4997633;28;19929;-75
2024/03/20 11:25:59;;;;;;;;;;;;;;;;;;5016783;28;19925;-75
2024/03/20 11:28:25;;;;;;;;;;;;;;;;;;5021304;28;19931;-75
2024/03/20 11:30:51;;;;;;;;;;;;;;;;;;5016549;28;19925;-74
2024/03/20 11:33:17;;;;;;;;;;;;;;;;;;5013250;28;19975;-76
2024/03/20 11:35:42;;;;;;;;;;;;;;;;;;5012881;28;20468;-76
2024/03/20 11:38:08;;;;;;;;;;;;;;;;;;5012636;28;20300;-75
2024/03/20 11:40:34;;;;;;;;;;;;;;;;;;4983300;28;19983;-76
2024/03/20 11:42:59;;;;;;;;;;;;;;;;;;5013394;28;20040;-76
2024/03/20 11:45:24;;;;;;;;;;;;;;;;;;5022089;28;19929;-76
2024/03/20 11:47:50;;;;;;;;;;;;;;;;;;4997701;28;20028;-75
2024/03/20 11:50:15;;;;;;;;;;;;;;;;;;4989656;28;19925;-75
2024/03/20 11:52:41;;;;;;;;;;;;;;;;;;5016714;28;19929;-76
2024/03/20 11:55:09;;;;;;;;;;;;;;;;;;4995757;28;20445;-76
2024/03/20 11:57:34;;;;;;;;;;;;;;;;;;5013270;28;20385;-76
2024/03/20 11:59:59;;;;;;;;;;;;;;;;;;5013778;28;20000;-75
2024/03/20 12:02:25;;;;;;;;;;;;;;;;;;5013712;28;19944;-76
2024/03/20 12:04:51;;;;;;;;;;;;;;;;;;5013358;28;19951;-75
2024/03/20 12:07:16;;;;;;;;;;;;;;;;;;5013715;28;19925;-76
2024/03/20 12:09:42;;;;;;;;;;;;;;;;;;5013035;28;19929;-76
2024/03/20 12:12:07;;;;;;;;;;;;;;;;;;5002900;28;19969;-76
2024/03/20 12:14:33;;;;;;;;;;;;;;;;;;5011238;28;19929;-75
2024/03/20 12:16:58;;;;;;;;;;;;;;;;;;5018540;28;19944;-75
2024/03/20 12:19:24;;;;;;;;;;;;;;;;;;4997175;28;19972;-74
2024/03/20 12:21:49;;;;;;;;;;;;;;;;;;5019080;28;20453;-75
2024/03/20 12:24:15;;;;;;;;;;;;;;;;;;5020108;28;19982;-74
2024/03/20 12:26:40;;;;;;;;;;;;;;;;;;5012946;28;20024;-75
2024/03/20 12:29:06;;;;;;;;;;;;;;;;;;5002858;28;19929;-76
2024/03/20 12:31:31;;;;;;;;;;;;;;;;;;5010217;28;20044;-76
2024/03/20 12:33:58;;;;;;;;;;;;;;;;;;5006259;28;20352;-77
2024/03/20 12:36:24;;;;;;;;;;;;;;;;;;5003865;28;19928;-76
2024/03/20 12:38:49;;;;;;;;;;;;;;;;;;4987520;28;19975;-76
2024/03/20 12:41:15;;;;;;;;;;;;;;;;;;5024652;28;19925;-76
2024/03/20 12:43:40;;;;;;;;;;;;;;;;;;5003437;28;19925;-76
2024/03/20 12:46:05;;;;;;;;;;;;;;;;;;5024887;28;19929;-76
2024/03/20 12:48:31;;;;;;;;;;;;;;;;;;5026535;28;19929;-76
2024/03/20 12:50:57;;;;;;;;;;;;;;;;;;5023178;28;20404;-76
2024/03/20 12:53:23;;;;;;;;;;;;;;;;;;5019249;28;19929;-77
2024/03/20 12:55:49;;;;;;;;;;;;;;;;;;5003280;28;19932;-77
2024/03/20 12:58:14;;;;;;;;;;;;;;;;;;5008520;28;19929;-76
2024/03/20 13:00:40;;;;;;;;;;;;;;;;;;5003450;28;20347;-76
2024/03/20 13:03:05;;;;;;;;;;;;;;;;;;5027175;28;20005;-76
2024/03/20 13:05:31;;;;;;;;;;;;;;;;;;5033005;28;19929;-76
2024/03/20 13:07:56;;;;;;;;;;;;;;;;;;5010011;28;19925;-76
2024/03/20 13:10:22;;;;;;;;;;;;;;;;;;4985887;28;19936;-76
2024/03/20 13:12:48;;;;;;;;;;;;;;;;;;5009782;28;19929;-76
2024/03/20 13:15:16;;;;;;;;;;;;;;;;;;5009939;28;20381;-76
2024/03/20 13:17:41;;;;;;;;;;;;;;;;;;5035592;28;19936;-76
2024/03/20 13:20:10;;;;;;;;;;;;;;;;;;5019921;28;19929;-76
2024/03/20 13:22:37;;;;;;;;;;;;;;;;;;5020008;28;20056;-75
2024/03/20 13:25:06;;;;;;;;;;;;;;;;;;5008876;28;19930;-76
2024/03/20 13:27:31;;;;;;;;;;;;;;;;;;5017297;28;19929;-76
2024/03/20 13:29:59;;;;;;;;;;;;;;;;;;5019230;28;19936;-77
2024/03/20 13:32:33;;;;;;;;;;;;;;;;;;5009416;28;19926;-77
2024/03/20 13:35:03;;;;;;;;;;;;;;;;;;5023542;28;20396;-75
2024/03/20 13:37:31;;;;;;;;;;;;;;;;;;5023605;28;19936;-76
2024/03/20 13:40:16;;;;;;;;;;;;;;;;;;5005609;28;19933;-75
2024/03/20 13:42:59;;;;;;;;;;;;;;;;;;5015238;28;20297;-76
2024/03/20 13:45:24;;;;;;;;;;;;;;;;;;5008239;28;19979;-76
2024/03/20 13:47:50;;;;;;;;;;;;;;;;;;5009185;28;20389;-77
2024/03/20 13:50:15;;;;;;;;;;;;;;;;;;5023719;28;19936;-76
2024/03/20 13:52:40;;;;;;;;;;;;;;;;;;5020540;28;20321;-76
2024/03/20 13:55:06;;;;;;;;;;;;;;;;;;5007118;28;19933;-76
2024/03/20 13:57:32;;;;;;;;;;;;;;;;;;5023087;28;19929;-76
2024/03/20 13:59:58;;;;;;;;;;;;;;;;;;5006879;28;19929;-77
2024/03/20 14:02:23;;;;;;;;;;;;;;;;;;4997739;28;20141;-77
2024/03/20 14:04:49;;;;;;;;;;;;;;;;;;5014520;28;20388;-77
2024/03/20 14:07:14;;;;;;;;;;;;;;;;;;5018278;28;19929;-75
2024/03/20 14:09:40;;;;;;;;;;;;;;;;;;5003173;28;19925;-76
2024/03/20 14:12:05;;;;;;;;;;;;;;;;;;4998474;28;19929;-75
2024/03/20 14:14:31;;;;;;;;;;;;;;;;;;5017108;28;19979;-76
2024/03/20 14:16:57;;;;;;;;;;;;;;;;;;5015619;28;19936;-76
2024/03/20 14:19:22;;;;;;;;;;;;;;;;;;5021522;28;19928;-75
2024/03/20 14:21:47;;;;;;;;;;;;;;;;;;5020244;28;19929;-76
2024/03/20 14:24:13;;;;;;;;;;;;;;;;;;5013687;28;19936;-75
2024/03/20 14:26:40;;;;;;;;;;;;;;;;;;5014935;28;19928;-75
2024/03/20 14:29:05;;;;;;;;;;;;;;;;;;4997952;28;19929;-75
2024/03/20 14:31:31;;;;;;;;;;;;;;;;;;5022794;28;19936;-75
2024/03/20 14:33:56;;;;;;;;;;;;;;;;;;5015181;28;19936;-75
2024/03/20 14:36:23;;;;;;;;;;;;;;;;;;5014631;28;20631;-75
2024/03/20 14:38:50;;;;;;;;;;;;;;;;;;5018433;28;20066;-76
2024/03/20 14:41:18;;;;;;;;;;;;;;;;;;4996883;28;20203;-75
2024/03/20 14:43:46;;;;;;;;;;;;;;;;;;5011957;28;19929;-75
2024/03/20 14:46:11;;;;;;;;;;;;;;;;;;5013858;28;19925;-76
2024/03/20 14:48:43;;;;;;;;;;;;;;;;;;5013970;28;20000;-75
2024/03/20 14:51:11;;;;;;;;;;;;;;;;;;5005296;28;19929;-76
2024/03/20 14:53:37;;;;;;;;;;;;;;;;;;5009186;28;20366;-76
2024/03/20 14:56:02;;;;;;;;;;;;;;;;;;5022467;28;20035;-76
2024/03/20 14:58:28;;;;;;;;;;;;;;;;;;5014275;28;20573;-76
2024/03/20 15:00:53;;;;;;;;;;;;;;;;;;5022375;28;20341;-75
2024/03/20 15:03:19;;;;;;;;;;;;;;;;;;5013531;28;19925;-76
2024/03/20 15:05:45;;;;;;;;;;;;;;;;;;5014655;28;19960;-75
2024/03/20 15:08:10;;;;;;;;;;;;;;;;;;5014151;28;19936;-75
2024/03/20 15:10:36;;;;;;;;;;;;;;;;;;5031107;28;20031;-76
2024/03/20 15:13:01;;;;;;;;;;;;;;;;;;5017585;28;19967;-76
2024/03/20 15:15:26;;;;;;;;;;;;;;;;;;5031009;28;19948;-76
2024/03/20 15:17:52;;;;;;;;;;;;;;;;;;5012924;28;19937;-75
2024/03/20 15:20:17;;;;;;;;;;;;;;;;;;5013193;28;20020;-76
2024/03/20 15:22:43;;;;;;;;;;;;;;;;;;5019695;28;19928;-76
2024/03/20 15:25:08;;;;;;;;;;;;;;;;;;5021591;28;19928;-75
2024/03/20 15:27:34;;;;;;;;;;;;;;;;;;5014257;28;20074;-76
2024/03/20 15:29:59;;;;;;;;;;;;;;;;;;5013769;28;19925;-75
2024/03/20 15:32:25;;;;;;;;;;;;;;;;;;5011960;28;19929;-75
2024/03/20 15:34:50;;;;;;;;;;;;;;;;;;5030746;28;19925;-75
2024/03/20 15:37:16;;;;;;;;;;;;;;;;;;5014681;28;19925;-75
2024/03/20 15:39:44;;;;;;;;;;;;;;;;;;5005472;28;19929;-76
2024/03/20 15:42:10;;;;;;;;;;;;;;;;;;5001002;28;19935;-75
2024/03/20 15:44:35;;;;;;;;;;;;;;;;;;5013607;28;19925;-76
2024/03/20 15:47:01;;;;;;;;;;;;;;;;;;5018426;28;19925;-75
2024/03/20 15:49:27;;;;;;;;;;;;;;;;;;5013488;28;19975;-75
2024/03/20 15:51:53;;;;;;;;;;;;;;;;;;5019135;28;19933;-75
2024/03/20 15:54:19;;;;;;;;;;;;;;;;;;5013345;28;19925;-76
2024/03/20 15:56:45;;;;;;;;;;;;;;;;;;4996809;28;19975;-76
2024/03/20 15:59:12;;;;;;;;;;;;;;;;;;5018888;28;19937;-76
2024/03/20 16:01:37;;;;;;;;;;;;;;;;;;4978539;28;19929;-75
2024/03/20 16:04:04;;;;;;;;;;;;;;;;;;5012701;28;20336;-76
2024/03/20 16:06:31;;;;;;;;;;;;;;;;;;5011340;28;20417;-75
2024/03/20 16:08:56;;;;;;;;;;;;;;;;;;4997112;28;19975;-75
2024/03/20 16:11:22;;;;;;;;;;;;;;;;;;4997279;28;20333;-75
2024/03/20 16:13:47;;;;;;;;;;;;;;;;;;4999176;28;19937;-76
2024/03/20 16:16:13;;;;;;;;;;;;;;;;;;5018677;28;19968;-75
2024/03/20 16:18:38;;;;;;;;;;;;;;;;;;5011880;28;19983;-75
2024/03/20 16:21:04;;;;;;;;;;;;;;;;;;4996808;28;19983;-76
2024/03/20 16:23:29;;;;;;;;;;;;;;;;;;5012702;28;19929;-75
2024/03/20 16:25:55;;;;;;;;;;;;;;;;;;5019563;28;19925;-74
2024/03/20 16:28:20;;;;;;;;;;;;;;;;;;5017781;28;19926;-75
2024/03/20 16:30:48;;;;;;;;;;;;;;;;;;5029743;28;19929;-75
2024/03/20 16:33:14;;;;;;;;;;;;;;;;;;5001210;28;19960;-75
2024/03/20 16:35:41;;;;;;;;;;;;;;;;;;4995573;28;19933;-76